Steamboat, Nevada
Current Conditions -  °F | °C
As of 1:55 PM on Sunday 21 Dec 2014 (Local Time) from KRNO Reporting Station
Overcast Overcast  
Wind Chill: 17°   Ceiling: 6000
Heat Index: 17°   Visibility: 10mi
Dew Point:   Wind: 14mph
Humidity: 43%   Direction: 330°NNW
Pressure: 30.2"   Gusts: 26mph
Location:  39.3905°N, 119.807°W
Report Text: KRNO 212155Z 33012G23KT 10SM BKN060 BKN150 BKN200 OVC250 17/04 A3020 RMK AO2 PK WND 29027/2104 SLP197 ACSL DSNT N E SE NW MTN TOPS OBSCD DSNT SW T01670039
Loading
Personal Weather Stations






























Interactive Weather Map New forecast layout! Learn more

10-Day Weather Forecast

Advertisements
Track Severe Weather on mobile